createdAt,value
2018-01-22T00:01:43.506Z,10.90
2018-01-22T00:04:10.993Z,14.77
2018-01-22T00:06:38.491Z,13.30
2018-01-22T00:09:05.968Z,17.13
2018-01-22T00:11:34.254Z,14.17
2018-01-22T00:14:02.493Z,12.40
2018-01-22T00:16:30.012Z,18.63
2018-01-22T00:18:57.497Z,12.37
2018-01-22T00:21:25.008Z,28.60
2018-01-22T00:23:52.487Z,33.20
2018-01-22T00:26:20.475Z,24.97
2018-01-22T00:28:47.928Z,21.70
2018-01-22T00:31:15.394Z,12.43
2018-01-22T00:33:42.893Z,15.33
2018-01-22T00:36:11.152Z,14.40
2018-01-22T00:38:38.642Z,14.17
2018-01-22T00:41:06.111Z,17.07
2018-01-22T00:43:33.621Z,19.00
2018-01-22T00:46:01.110Z,19.13
2018-01-22T00:48:29.370Z,16.13
2018-01-22T00:50:56.846Z,15.73
2018-01-22T00:53:24.357Z,13.70
2018-01-22T00:55:51.843Z,27.40
2018-01-22T00:58:20.128Z,21.70
2018-01-22T01:00:48.357Z,21.00
2018-01-22T01:03:15.900Z,18.53
2018-01-22T01:05:43.383Z,30.10
2018-01-22T01:08:10.855Z,21.63
2018-01-22T01:10:38.372Z,16.53
2018-01-22T01:13:05.836Z,19.43
2018-01-22T01:15:33.337Z,12.57
2018-01-22T01:18:00.807Z,7.67
2018-01-22T01:20:29.062Z,8.00
2018-01-22T01:22:56.531Z,9.97
2018-01-22T01:25:24.801Z,7.90
2018-01-22T01:27:52.281Z,10.13
2018-01-22T01:30:20.557Z,12.13
2018-01-22T01:32:48.790Z,9.07
2018-01-22T01:35:16.301Z,22.80
2018-01-22T01:37:43.775Z,14.30
2018-01-22T01:40:11.274Z,11.03
2018-01-22T01:42:38.741Z,12.67
2018-01-22T01:45:06.288Z,10.90
2018-01-22T01:47:33.756Z,17.77
2018-01-22T01:50:01.258Z,12.00
2018-01-22T01:52:28.757Z,16.57
2018-01-22T01:54:56.226Z,20.20
2018-01-22T01:57:23.792Z,12.77
2018-01-22T01:59:52.037Z,10.10
2018-01-22T02:02:19.553Z,12.00
2018-01-22T02:04:47.021Z,14.03
2018-01-22T02:07:14.526Z,11.13
2018-01-22T02:09:41.999Z,13.77
2018-01-22T02:12:09.493Z,10.80
2018-01-22T02:14:36.970Z,17.33
2018-01-22T02:17:04.778Z,17.90
2018-01-22T02:19:32.246Z,10.97
2018-01-22T02:22:00.558Z,10.23
2018-01-22T02:24:28.042Z,9.43
2018-01-22T02:26:55.502Z,9.77
2018-01-22T02:29:22.994Z,10.30
2018-01-22T02:31:51.305Z,12.53
2018-01-22T02:34:18.801Z,11.77
2018-01-22T02:36:46.281Z,17.63
2018-01-22T02:39:13.919Z,15.37
2018-01-22T02:41:41.370Z,9.47
2018-01-22T02:44:08.836Z,21.07
2018-01-22T02:46:36.363Z,38.13
2018-01-22T02:49:03.829Z,22.17
2018-01-22T02:51:31.328Z,17.13
2018-01-22T02:53:58.833Z,13.07
2018-01-22T02:56:26.345Z,11.27
2018-01-22T02:58:53.821Z,25.80
2018-01-22T03:01:22.105Z,10.00
2018-01-22T03:03:49.601Z,18.33
2018-01-22T03:06:17.102Z,10.90
2018-01-22T03:08:45.348Z,17.33
2018-01-22T03:11:12.885Z,8.67
2018-01-22T03:13:40.351Z,8.63
2018-01-22T03:16:07.816Z,9.83
2018-01-22T03:18:35.306Z,9.00
2018-01-22T03:21:02.782Z,8.40
2018-01-22T03:23:30.273Z,22.17
2018-01-22T03:25:57.733Z,8.37
2018-01-22T03:28:25.218Z,9.53
2018-01-22T03:30:52.716Z,10.63
2018-01-22T03:33:20.217Z,13.73
2018-01-22T03:35:47.690Z,9.13
2018-01-22T03:38:15.971Z,8.90
2018-01-22T03:40:43.472Z,10.20
2018-01-22T03:43:10.957Z,12.60
2018-01-22T03:45:38.458Z,13.10
2018-01-22T03:48:06.774Z,14.30
2018-01-22T03:50:34.281Z,27.37
2018-01-22T03:53:01.747Z,10.80
2018-01-22T03:55:29.277Z,12.10
2018-01-22T03:57:56.731Z,12.20
2018-01-22T04:00:24.258Z,11.33
2018-01-22T04:02:51.767Z,15.50
2018-01-22T04:05:19.287Z,10.53
2018-01-22T04:07:46.756Z,19.47
2018-01-22T04:10:14.296Z,12.27
2018-01-22T04:12:41.758Z,13.83
2018-01-22T04:15:09.237Z,11.53
2018-01-22T04:17:36.733Z,18.77
2018-01-22T04:20:05.000Z,19.90
2018-01-22T04:22:32.494Z,11.60
2018-01-22T04:24:59.955Z,12.27
2018-01-22T04:27:27.461Z,14.03
2018-01-22T04:29:54.957Z,19.93
2018-01-22T04:32:23.199Z,10.80
2018-01-22T04:34:50.680Z,11.27
2018-01-22T04:37:18.938Z,12.60
2018-01-22T04:39:46.409Z,11.97
2018-01-22T04:42:15.006Z,9.87
2018-01-22T04:44:43.246Z,14.47
2018-01-22T04:47:10.716Z,11.80
2018-01-22T04:49:38.219Z,18.17
2018-01-22T04:52:05.729Z,10.60
2018-01-22T04:54:33.213Z,21.37
2018-01-22T04:57:01.456Z,12.50
2018-01-22T04:59:28.972Z,15.17
2018-01-22T05:01:56.456Z,30.50
2018-01-22T05:04:23.928Z,13.77
2018-01-22T05:06:51.455Z,14.20
2018-01-22T05:09:18.925Z,13.17
2018-01-22T05:11:46.436Z,16.40
2018-01-22T05:14:14.693Z,15.27
2018-01-22T05:16:42.214Z,37.47
2018-01-22T05:19:09.703Z,16.97
2018-01-22T05:21:37.190Z,10.73
2018-01-22T05:24:04.665Z,20.80
2018-01-22T05:26:32.183Z,23.33
2018-01-22T05:29:00.423Z,12.30
2018-01-22T05:31:27.898Z,11.53
2018-01-22T05:33:55.410Z,12.37
2018-01-22T05:36:22.898Z,13.50
2018-01-22T05:38:50.394Z,14.80
2018-01-22T05:41:18.644Z,17.77
2018-01-22T05:43:46.157Z,16.33
2018-01-22T05:46:13.726Z,24.43
2018-01-22T05:48:41.217Z,17.13
2018-01-22T05:51:08.693Z,17.37
2018-01-22T05:53:36.206Z,18.77
2018-01-22T05:56:03.689Z,21.00
2018-01-22T05:58:31.198Z,20.80
2018-01-22T06:00:58.697Z,19.30
2018-01-22T06:03:26.204Z,17.90
2018-01-22T06:05:54.438Z,16.80
2018-01-22T06:08:21.967Z,18.57
2018-01-22T06:10:49.529Z,16.20
2018-01-22T06:13:17.054Z,24.23
2018-01-22T06:15:45.298Z,18.70
2018-01-22T06:18:13.652Z,18.23
2018-01-22T06:20:41.152Z,24.07
2018-01-22T06:23:08.638Z,18.77
2018-01-22T06:25:36.130Z,15.47
2018-01-22T06:28:03.615Z,17.93
2018-01-22T06:30:31.130Z,16.80
2018-01-22T06:32:58.600Z,20.77
2018-01-22T06:35:26.104Z,19.00
2018-01-22T06:37:54.417Z,17.97
2018-01-22T06:40:21.927Z,19.90
2018-01-22T06:42:49.432Z,16.17
2018-01-22T06:45:16.941Z,17.27
2018-01-22T06:47:44.438Z,16.73
2018-01-22T06:50:11.976Z,15.47
2018-01-22T06:52:39.499Z,13.93
2018-01-22T06:55:07.024Z,12.77
2018-01-22T06:57:34.513Z,12.30
2018-01-22T07:00:01.995Z,15.63
2018-01-22T07:02:29.505Z,16.47
2018-01-22T07:04:57.020Z,14.20
2018-01-22T07:07:25.259Z,13.17
2018-01-22T07:09:52.777Z,14.70
2018-01-22T07:12:20.240Z,15.80
2018-01-22T07:14:47.706Z,13.30
2018-01-22T07:17:15.229Z,14.60
2018-01-22T07:19:43.488Z,12.53
2018-01-22T07:22:10.988Z,16.27
2018-01-22T07:24:38.480Z,18.13
2018-01-22T07:27:05.967Z,17.00
2018-01-22T07:29:33.426Z,16.93
2018-01-22T07:32:10.864Z,23.30
2018-01-22T07:34:38.370Z,19.67
2018-01-22T07:37:05.899Z,18.00
2018-01-22T07:39:33.378Z,19.33
2018-01-22T07:42:00.885Z,23.33
2018-01-22T07:44:28.351Z,22.57
2018-01-22T07:46:55.870Z,18.50
2018-01-22T07:49:23.339Z,19.13
2018-01-22T07:51:51.609Z,21.20
2018-01-22T07:54:19.857Z,18.57
2018-01-22T07:56:47.347Z,19.27
2018-01-22T07:59:15.596Z,11.83
2018-01-22T08:01:43.083Z,15.33
2018-01-22T08:04:11.333Z,14.97
2018-01-22T08:06:38.842Z,14.97
2018-01-22T08:09:06.325Z,16.60
2018-01-22T08:11:33.801Z,12.13
2018-01-22T08:14:01.321Z,14.77
2018-01-22T08:16:28.785Z,14.37
2018-01-22T08:18:56.293Z,12.57
2018-01-22T08:21:24.540Z,12.27
2018-01-22T08:23:52.061Z,9.90
2018-01-22T08:26:19.556Z,11.87
2018-01-22T08:28:47.144Z,12.33
2018-01-22T08:31:14.624Z,13.97
2018-01-22T08:33:42.104Z,12.63
2018-01-22T08:36:09.625Z,15.00
2018-01-22T08:38:37.925Z,15.57
2018-01-22T08:41:05.400Z,20.30
2018-01-22T08:43:32.880Z,17.50
2018-01-22T08:46:00.377Z,23.23
2018-01-22T08:48:28.614Z,20.37
2018-01-22T08:50:56.125Z,16.33
2018-01-22T08:53:23.584Z,15.37
2018-01-22T08:55:51.110Z,15.83
2018-01-22T08:58:18.579Z,13.30
2018-01-22T09:00:46.875Z,13.13
2018-01-22T09:03:14.343Z,14.13
2018-01-22T09:05:41.831Z,16.23
2018-01-22T09:08:09.308Z,18.10
2018-01-22T09:10:36.797Z,13.73
2018-01-22T09:13:05.072Z,14.13
2018-01-22T09:15:32.557Z,14.23
2018-01-22T09:18:00.056Z,12.67
2018-01-22T09:20:27.590Z,14.17
2018-01-22T09:22:55.060Z,16.33
2018-01-22T09:25:22.565Z,14.73
2018-01-22T09:27:50.812Z,14.17
2018-01-22T09:30:18.310Z,14.30
2018-01-22T09:32:45.791Z,19.47
2018-01-22T09:35:13.298Z,17.23
2018-01-22T09:37:40.776Z,18.83
2018-01-22T09:40:09.082Z,17.70
2018-01-22T09:42:36.578Z,22.57
2018-01-22T09:45:04.055Z,21.10
2018-01-22T09:47:32.329Z,20.97
2018-01-22T09:50:00.617Z,29.47
2018-01-22T09:52:28.889Z,33.70
2018-01-22T09:54:57.124Z,28.43
2018-01-22T09:57:24.658Z,24.23
2018-01-22T09:59:52.132Z,24.20
2018-01-22T10:02:19.694Z,21.53
2018-01-22T10:04:47.181Z,23.37
2018-01-22T10:07:14.670Z,22.80
2018-01-22T10:09:42.179Z,22.17
2018-01-22T10:12:09.698Z,26.37
2018-01-22T10:14:37.259Z,35.40
2018-01-22T10:17:04.790Z,39.00
2018-01-22T10:19:32.259Z,30.53
2018-01-22T10:21:59.727Z,29.03
2018-01-22T10:24:27.241Z,29.63
2018-01-22T10:26:54.756Z,26.53
2018-01-22T10:29:22.219Z,33.80
2018-01-22T10:31:49.766Z,27.87
2018-01-22T10:34:17.246Z,36.20
2018-01-22T10:36:44.763Z,38.50
2018-01-22T10:39:12.230Z,37.97
2018-01-22T10:41:39.780Z,47.60
2018-01-22T10:44:08.024Z,43.90
2018-01-22T10:46:35.516Z,35.13
2018-01-22T10:49:03.011Z,47.00
2018-01-22T10:51:30.500Z,43.30
2018-01-22T10:53:58.048Z,34.83
2018-01-22T10:56:25.544Z,33.67
2018-01-22T10:58:53.864Z,37.90
2018-01-22T11:01:21.336Z,39.43
2018-01-22T11:03:49.783Z,33.13
2018-01-22T11:06:17.261Z,48.27
2018-01-22T11:08:45.469Z,45.47
2018-01-22T11:11:12.957Z,57.73
2018-01-22T11:13:40.462Z,71.23
2018-01-22T11:16:10.856Z,59.27
2018-01-22T11:18:38.368Z,48.93
2018-01-22T11:21:05.851Z,53.77
2018-01-22T11:23:33.385Z,44.87
2018-01-22T11:26:00.898Z,32.50
2018-01-22T11:28:28.462Z,27.03
2018-01-22T11:30:55.949Z,32.73
2018-01-22T11:33:23.428Z,30.63
2018-01-22T11:35:51.728Z,27.57
2018-01-22T11:38:19.211Z,29.07
2018-01-22T11:40:46.730Z,31.73
2018-01-22T11:43:14.986Z,39.67
2018-01-22T11:45:42.485Z,76.23
2018-01-22T11:48:09.979Z,27.73
2018-01-22T11:50:37.503Z,25.87
2018-01-22T11:53:04.988Z,27.40
2018-01-22T11:55:32.458Z,28.63
2018-01-22T11:57:59.968Z,42.93
2018-01-22T12:00:27.602Z,30.87
2018-01-22T12:02:55.099Z,29.43
2018-01-22T12:05:22.572Z,30.53
2018-01-22T12:07:50.092Z,28.40
2018-01-22T12:10:17.591Z,23.30
2018-01-22T12:12:45.091Z,22.27
2018-01-22T12:15:12.576Z,28.73
2018-01-22T12:17:40.071Z,22.30
2018-01-22T12:20:07.537Z,20.17
2018-01-22T12:22:35.063Z,21.07
2018-01-22T12:25:02.545Z,19.37
2018-01-22T12:27:30.058Z,18.07
2018-01-22T12:29:58.300Z,21.03
2018-01-22T12:32:25.804Z,17.60
2018-01-22T12:34:53.293Z,19.70
2018-01-22T12:37:20.824Z,18.50
2018-01-22T12:39:48.310Z,18.37
2018-01-22T12:42:15.828Z,40.90
2018-01-22T12:44:43.331Z,45.10
2018-01-22T12:47:10.834Z,57.40
2018-01-22T12:49:39.097Z,45.90
2018-01-22T12:52:06.625Z,64.53
2018-01-22T12:54:34.166Z,163.50
2018-01-22T12:57:01.671Z,68.20
2018-01-22T12:59:29.945Z,59.30
2018-01-22T13:01:57.429Z,54.33
2018-01-22T13:04:24.957Z,66.80
2018-01-22T13:06:52.442Z,80.27
2018-01-22T13:09:19.953Z,74.70
2018-01-22T13:11:47.426Z,95.63
2018-01-22T13:14:14.973Z,108.70
2018-01-22T13:16:42.447Z,120.33
2018-01-22T13:19:09.958Z,66.57
2018-01-22T13:21:37.461Z,72.50
2018-01-22T13:24:04.997Z,101.10
2018-01-22T13:26:32.484Z,59.30
2018-01-22T13:28:59.998Z,57.53
2018-01-22T13:31:27.474Z,60.73
2018-01-22T13:33:55.377Z,52.73
2018-01-22T13:36:23.637Z,84.87
2018-01-22T13:38:51.217Z,74.03
2018-01-22T13:41:19.493Z,66.90
2018-01-22T13:43:47.722Z,55.03
2018-01-22T13:46:15.228Z,41.13
2018-01-22T13:48:43.504Z,60.10
2018-01-22T13:51:11.788Z,55.13
2018-01-22T13:53:40.020Z,35.50
2018-01-22T13:56:07.522Z,27.83
2018-01-22T13:58:35.014Z,29.90
2018-01-22T14:01:02.521Z,37.90
2018-01-22T14:03:30.783Z,49.33
2018-01-22T14:05:58.302Z,45.93
2018-01-22T14:08:25.793Z,43.57
2018-01-22T14:10:53.335Z,53.43
2018-01-22T14:13:20.825Z,58.47
2018-01-22T14:15:48.342Z,98.30
2018-01-22T14:18:15.821Z,49.40
2018-01-22T14:20:43.328Z,56.33
2018-01-22T14:23:10.815Z,66.53
2018-01-22T14:25:38.338Z,95.20
2018-01-22T14:28:06.635Z,72.90
2018-01-22T14:30:34.317Z,61.53
2018-01-22T14:33:01.794Z,44.13
2018-01-22T14:35:29.279Z,48.43
2018-01-22T14:37:57.552Z,47.77
2018-01-22T14:40:25.809Z,59.50
2018-01-22T14:42:53.314Z,42.63
2018-01-22T14:45:20.815Z,54.57
2018-01-22T14:47:48.324Z,41.23
2018-01-22T14:50:15.794Z,44.03
2018-01-22T14:52:43.321Z,36.87
2018-01-22T14:55:11.576Z,29.40
2018-01-22T14:57:39.074Z,32.17
2018-01-22T15:00:06.568Z,36.80
2018-01-22T15:02:34.378Z,30.50
2018-01-22T15:05:02.683Z,114.47
2018-01-22T15:07:30.211Z,32.00
2018-01-22T15:09:58.515Z,35.10
2018-01-22T15:12:25.987Z,18.00
2018-01-22T15:14:53.471Z,35.93
2018-01-22T15:17:20.963Z,46.67
2018-01-22T15:19:49.279Z,26.17
2018-01-22T15:22:16.759Z,34.57
2018-01-22T15:24:44.265Z,26.97
2018-01-22T15:27:11.725Z,30.40
2018-01-22T15:29:39.241Z,33.53
2018-01-22T15:32:07.437Z,42.10
2018-01-22T15:34:34.952Z,35.10
2018-01-22T15:37:02.447Z,24.63
2018-01-22T15:39:30.016Z,28.80
2018-01-22T15:41:57.491Z,28.63
2018-01-22T15:44:25.013Z,26.27
2018-01-22T15:46:52.504Z,36.87
2018-01-22T15:49:20.783Z,32.73
2018-01-22T15:51:48.244Z,23.40
2018-01-22T15:54:16.540Z,22.07
2018-01-22T15:56:44.011Z,33.90
2018-01-22T15:59:11.534Z,26.50
2018-01-22T16:01:39.026Z,44.80
2018-01-22T16:04:06.595Z,28.47
2018-01-22T16:06:34.091Z,24.30
2018-01-22T16:09:01.605Z,20.40
2018-01-22T16:11:29.174Z,28.30
2018-01-22T16:13:56.731Z,27.63
2018-01-22T16:16:24.229Z,32.00
2018-01-22T16:18:52.492Z,44.23
2018-01-22T16:21:20.030Z,31.97
2018-01-22T16:23:47.523Z,25.20
2018-01-22T16:26:15.795Z,23.70
2018-01-22T16:28:44.062Z,22.43
2018-01-22T16:31:11.587Z,20.77
2018-01-22T16:33:39.068Z,16.90
2018-01-22T16:36:06.564Z,19.43
2018-01-22T16:38:34.834Z,14.07
2018-01-22T16:41:03.129Z,14.43
2018-01-22T16:43:30.634Z,15.13
2018-01-22T16:45:58.131Z,13.13
2018-01-22T16:48:26.406Z,13.57
2018-01-22T16:50:53.916Z,16.30
2018-01-22T16:53:21.453Z,17.00
2018-01-22T16:55:48.926Z,23.03
2018-01-22T16:58:16.445Z,18.40
2018-01-22T17:00:44.741Z,19.70
2018-01-22T17:03:12.269Z,17.00
2018-01-22T17:05:39.770Z,15.33
2018-01-22T17:08:07.238Z,16.40
2018-01-22T17:10:34.758Z,16.33
2018-01-22T17:13:02.270Z,16.20
2018-01-22T17:15:29.753Z,14.27
2018-01-22T17:17:58.732Z,14.67
2018-01-22T17:20:26.213Z,18.83
2018-01-22T17:22:53.724Z,12.33
2018-01-22T17:25:21.220Z,11.67
2018-01-22T17:27:49.495Z,13.13
2018-01-22T17:30:17.758Z,15.27
2018-01-22T17:32:45.248Z,14.17
2018-01-22T17:35:12.758Z,13.33
2018-01-22T17:37:40.255Z,14.17
2018-01-22T17:40:08.532Z,20.77
2018-01-22T17:42:36.815Z,15.80
2018-01-22T17:45:04.322Z,18.03
2018-01-22T17:47:31.795Z,22.43
2018-01-22T17:49:59.290Z,24.80
2018-01-22T17:52:26.775Z,19.63
2018-01-22T17:54:54.329Z,13.83
2018-01-22T17:57:21.772Z,15.43
2018-01-22T17:59:49.296Z,15.60
2018-01-22T18:02:16.771Z,16.97
2018-01-22T18:04:45.746Z,17.47
2018-01-22T18:07:13.229Z,26.17
2018-01-22T18:09:41.254Z,20.13
2018-01-22T18:12:08.755Z,17.80
2018-01-22T18:14:36.246Z,18.80
2018-01-22T18:17:03.737Z,19.13
2018-01-22T18:19:31.309Z,19.80
2018-01-22T18:21:58.797Z,19.03
2018-01-22T18:24:26.304Z,14.53
2018-01-22T18:26:53.784Z,17.60
2018-01-22T18:29:21.275Z,17.50
2018-01-22T18:31:48.771Z,13.17
2018-01-22T18:34:16.288Z,13.10
2018-01-22T18:36:43.795Z,14.10
2018-01-22T18:39:11.321Z,15.33
2018-01-22T18:41:38.802Z,22.47
2018-01-22T18:44:07.066Z,24.60
2018-01-22T18:46:35.379Z,22.77
2018-01-22T18:49:02.868Z,21.53
2018-01-22T18:51:30.357Z,14.27
2018-01-22T18:53:57.889Z,13.40
2018-01-22T18:56:25.399Z,14.97
2018-01-22T18:58:52.908Z,13.03
2018-01-22T19:01:20.456Z,11.97
2018-01-22T19:03:48.765Z,10.77
2018-01-22T19:06:17.193Z,11.20
2018-01-22T19:08:44.719Z,11.47
2018-01-22T19:11:12.208Z,12.47
2018-01-22T19:13:39.728Z,12.50
2018-01-22T19:16:07.203Z,11.10
2018-01-22T19:18:34.743Z,11.97
2018-01-22T19:21:02.241Z,13.73
2018-01-22T19:23:29.740Z,12.23
2018-01-22T19:25:57.248Z,15.03
2018-01-22T19:28:25.595Z,15.67
2018-01-22T19:30:53.076Z,24.97
2018-01-22T19:33:20.608Z,29.93
2018-01-22T19:35:48.098Z,24.03
2018-01-22T19:38:15.615Z,26.83
2018-01-22T19:40:43.108Z,18.73
2018-01-22T19:43:10.673Z,26.53
2018-01-22T19:45:38.459Z,19.33
2018-01-22T19:48:06.774Z,21.07
2018-01-22T19:50:34.294Z,23.50
2018-01-22T19:53:02.564Z,16.47
2018-01-22T19:55:30.084Z,21.27
2018-01-22T19:57:57.567Z,19.73
2018-01-22T20:00:25.081Z,17.83
2018-01-22T20:02:52.573Z,15.17
2018-01-22T20:05:20.083Z,16.87
2018-01-22T20:07:47.649Z,17.60
2018-01-22T20:10:15.280Z,20.60
2018-01-22T20:12:43.802Z,17.37
2018-01-22T20:15:11.289Z,14.47
2018-01-22T20:17:38.776Z,16.30
2018-01-22T20:20:07.761Z,14.53
2018-01-22T20:22:36.048Z,13.30
2018-01-22T20:25:04.290Z,12.53
2018-01-22T20:27:31.815Z,12.00
2018-01-22T20:29:59.290Z,10.30
2018-01-22T20:32:26.793Z,17.70
2018-01-22T20:34:55.028Z,10.70
2018-01-22T20:37:22.601Z,11.47
2018-01-22T20:39:50.052Z,10.37
2018-01-22T20:42:17.562Z,10.67
2018-01-22T20:44:45.801Z,10.27
2018-01-22T20:47:13.311Z,11.30
2018-01-22T20:49:40.797Z,12.73
2018-01-22T20:52:08.318Z,13.03
2018-01-22T20:54:35.818Z,8.90
2018-01-22T20:57:03.345Z,7.83
2018-01-22T20:59:30.864Z,10.27
2018-01-22T21:01:59.202Z,12.80
2018-01-22T21:04:26.700Z,13.70
2018-01-22T21:06:55.014Z,13.07
2018-01-22T21:09:22.573Z,14.10
2018-01-22T21:11:50.129Z,12.77
2018-01-22T21:14:17.640Z,11.67
2018-01-22T21:16:45.158Z,10.50
2018-01-22T21:19:12.670Z,8.50
2018-01-22T21:21:40.360Z,8.90
2018-01-22T21:24:07.860Z,9.63
2018-01-22T21:26:35.318Z,8.93
2018-01-22T21:29:02.820Z,8.80
2018-01-22T21:31:31.709Z,9.13
2018-01-22T21:33:59.230Z,10.23
2018-01-22T21:36:26.731Z,11.90
2018-01-22T21:38:54.253Z,10.73
2018-01-22T21:41:21.741Z,10.77
2018-01-22T21:43:50.785Z,11.67
2018-01-22T21:46:18.254Z,9.40
2018-01-22T21:48:45.766Z,8.50
2018-01-22T21:51:13.568Z,8.67
2018-01-22T21:53:41.044Z,8.57
2018-01-22T21:56:08.549Z,9.33
2018-01-22T21:58:36.045Z,10.27
2018-01-22T22:01:03.573Z,9.30
2018-01-22T22:03:31.067Z,12.57
2018-01-22T22:05:58.608Z,12.63
2018-01-22T22:08:26.082Z,16.03
2018-01-22T22:10:53.618Z,12.63
2018-01-22T22:13:21.174Z,13.27
2018-01-22T22:15:48.648Z,9.77
2018-01-22T22:18:16.157Z,9.20
2018-01-22T22:20:44.390Z,11.80
2018-01-22T22:23:11.912Z,9.90
2018-01-22T22:25:39.395Z,11.67
2018-01-22T22:28:06.899Z,11.20
2018-01-22T22:30:35.141Z,18.07
2018-01-22T22:33:02.644Z,8.97
2018-01-22T22:35:30.125Z,10.27
2018-01-22T22:37:57.657Z,8.60
2018-01-22T22:40:25.149Z,7.50
2018-01-22T22:42:52.847Z,7.10
2018-01-22T22:45:20.341Z,6.30
2018-01-22T22:47:48.584Z,8.90
2018-01-22T22:50:16.096Z,7.07
2018-01-22T22:52:43.582Z,6.47
2018-01-22T22:55:11.097Z,7.17
2018-01-22T22:57:38.589Z,7.77
2018-01-22T23:00:06.134Z,6.53
2018-01-22T23:02:33.616Z,8.60
2018-01-22T23:05:01.106Z,6.00
2018-01-22T23:07:29.376Z,6.70
2018-01-22T23:09:56.897Z,6.90
2018-01-22T23:12:24.390Z,5.90
2018-01-22T23:14:51.866Z,5.97
2018-01-22T23:17:19.350Z,6.07
2018-01-22T23:19:46.841Z,6.27
2018-01-22T23:22:14.330Z,6.30
2018-01-22T23:24:42.582Z,6.03
2018-01-22T23:27:10.103Z,7.57
2018-01-22T23:29:37.601Z,6.77
2018-01-22T23:32:05.161Z,6.50
2018-01-22T23:34:32.644Z,5.93
2018-01-22T23:37:00.916Z,8.20
2018-01-22T23:39:29.210Z,15.30
2018-01-22T23:41:56.686Z,7.53
2018-01-22T23:44:24.202Z,6.47
2018-01-22T23:46:51.680Z,6.80
2018-01-22T23:49:19.196Z,6.10
2018-01-22T23:51:46.736Z,6.27
2018-01-22T23:54:20.157Z,6.27
2018-01-22T23:56:47.637Z,7.17
2018-01-22T23:59:15.985Z,7.90
